Virtual Futura



 METAR AND TAF INFORMATION
METAR FOR LEJR
ADDS - METARS form results

(1305 UTC 19 July 2019)
Data provider http://aviationweather.gov/metar/data/
 
METAR text: LEJR 191300Z VRB03KT CAVOK 37/11 Q1010
Conditions at: LEJR (JEREZ (CIV/MIL) , ES) observed 1300 UTC 19 July 2019
Temperature: 37.0°C (99°F)
Dewpoint: 11.0°C (52°F) [RH = 21%]
Pressure (altimeter): 29.82 inches Hg (1010.0 mb)
Winds: variable direction winds at 3 MPH (3 knots; 1.5 m/s)
Visibility: 6 or more miles (10+ km)
Ceiling: ceiling and visibility are OK
Clouds: unknown
Weather: no significant weather observed at this time

METAR text: LEJR 191230Z 02006KT 340V080 CAVOK 36/12 Q1011
Conditions at: LEJR (JEREZ (CIV/MIL) , ES) observed 1230 UTC 19 July 2019
Temperature: 36.0°C (97°F)
Dewpoint: 12.0°C (54°F) [RH = 24%]
Pressure (altimeter): 29.85 inches Hg (1011.0 mb)
Winds: from the NNE (20 degrees) at 7 MPH (6 knots; 3.1 m/s)
Visibility: 6 or more miles (10+ km)
Ceiling: ceiling and visibility are OK
Clouds: unknown
Weather: no significant weather observed at this time

Forecast for: LEJR (JEREZ (CIV/MIL) , ES)
Text: TAF LEJR 191100Z 1912/2012 02004KT CAVOK TX37/1915Z TN21/2006Z
Forecast period: 1200 to 1400 UTC 19 July 2019
Forecast type: FROM: standard forecast or significant change
Winds: from the NNE (20 degrees) at 5 MPH (4 knots; 2.1 m/s)
Visibility: 6 or more miles 10+ km)
Ceiling: unknown
Clouds: missing
Weather: no significant weather forecast for this period
Text: BECMG 1914/1916 22010KT
Forecast period: 1400 to 2200 UTC 19 July 2019
Forecast type: BECOMING: Conditions expected to become as follows by 1600 UTC 19 July 2019
Winds: from the SW (220 degrees) at 12 MPH (10 knots; 5.1 m/s)
Visibility: 6 or more miles 10+ km)
Ceiling: unknown
Clouds: missing
Weather: no significant weather forecast for this period
Text: BECMG 1922/2001 VRB02KT
Forecast period: 2200 UTC 19 July 2019 to 1200 UTC 20 July 2019
Forecast type: BECOMING: Conditions expected to become as follows by 0100 UTC 20 July 2019
Winds: variable direction winds at 2 MPH (2 knots; 1.0 m/s)
Visibility: 6 or more miles 10+ km)
Ceiling: unknown
Clouds: missing
Weather: no significant weather forecast for this period

 AIRPORT MAP

 RUNWAY INFORMATION
Runway 02 Runway length 7546 ft Runway width 148 ft
Runway elevation 68 ft Runway displaced threshold 0 ft Runway heading 21
Runway 20 Runway length 7546 ft Runway width 148 ft
Runway elevation 93 ft Runway displaced threshold 0 ft Runway heading 201

 AIRPORT FREQUENCIES
Type APP Name APP Frequency 128.5 MHZ
Type GND Name GND Frequency 121.6 MHZ
Type TWR Name TWR Frequency 118.55 MHZ

 AIRPORT NEAR NAVIGATION AIDS
Type NDB Name Jerez Frequency 433 KHZ
Type VOR-DME Name Jerez Frequency 113000 KHZ

Poltica de Cookies

Esta web utiliza cookies para obtener datos estadsticos de la navegacin de sus usuarios. Si continas navegando consideramos que aceptas su uso. Ms informacin X Cerrar